Time;durP1;ratioP1;P1;durP2;ratioP2;P2;SDS_P1;SDS_P2;PMS_P1;PMS_P2;Temp;Humidity;BMP_temperature;BMP_pressure;BME280_temperature;BME280_humidity;BME280_pressure;Samples;Min_cycle;Max_cycle;Signal;HPM_P1;HPM_P2
2024/04/14 00:01:24;;;;;;;10.27;6.55;;;;;;;17.87;67.78;101365.22;6748014;21;19994;-82
2024/04/14 00:03:56;;;;;;;8.55;6.53;;;;;;;17.86;67.45;101365.38;6749749;21;19999;-82
2024/04/14 00:06:22;;;;;;;7.45;5.97;;;;;;;17.90;66.14;101359.53;6747176;21;19994;-82
2024/04/14 00:08:51;;;;;;;8.75;6.57;;;;;;;17.85;66.02;101364.53;6748659;21;20002;-80
2024/04/14 00:11:16;;;;;;;9.00;6.25;;;;;;;17.71;65.13;101361.63;6750727;21;20002;-82
2024/04/14 00:13:44;;;;;;;10.60;5.90;;;;;;;17.71;63.30;101372.31;6746948;21;20008;-82
2024/04/14 00:16:13;;;;;;;10.30;5.85;;;;;;;17.64;62.61;101370.31;6745726;21;20324;-81
2024/04/14 00:18:41;;;;;;;7.47;6.43;;;;;;;17.58;63.34;101370.94;6745599;21;19998;-82
2024/04/14 00:21:07;;;;;;;11.38;6.22;;;;;;;17.43;63.43;101376.06;6746367;21;19994;-81
2024/04/14 00:23:35;;;;;;;7.93;5.03;;;;;;;17.32;63.72;101383.53;6749362;21;20338;-81
2024/04/14 00:26:01;;;;;;;6.82;5.10;;;;;;;17.28;63.50;101375.00;6748984;21;19994;-82
2024/04/14 00:28:29;;;;;;;10.23;6.03;;;;;;;17.15;63.97;101383.47;6750086;21;20013;-80
2024/04/14 00:30:55;;;;;;;8.35;5.80;;;;;;;17.02;65.54;101380.38;6754535;21;19994;-81
2024/04/14 00:33:26;;;;;;;7.85;5.80;;;;;;;16.87;65.59;101380.09;6755436;21;20009;-82
2024/04/14 00:35:52;;;;;;;9.15;5.18;;;;;;;16.79;62.40;101380.06;6754717;21;20308;-79
2024/04/14 00:38:20;;;;;;;8.65;5.07;;;;;;;16.78;59.52;101378.34;6755421;21;19995;-81
2024/04/14 00:40:46;;;;;;;6.28;4.43;;;;;;;16.72;58.53;101383.47;6755477;21;20033;-80
2024/04/14 00:43:16;;;;;;;6.32;4.10;;;;;;;16.65;51.90;101385.91;6755471;21;20605;-81
2024/04/14 00:45:43;;;;;;;6.93;3.70;;;;;;;16.62;50.11;101389.75;6755530;21;19994;-81
2024/04/14 00:48:12;;;;;;;5.40;3.53;;;;;;;16.59;49.13;101389.22;6752678;21;19994;-82
2024/04/14 00:50:43;;;;;;;5.93;3.50;;;;;;;16.46;49.94;101397.63;6750865;21;20310;-81
2024/04/14 00:53:13;;;;;;;7.43;3.80;;;;;;;16.37;49.70;101395.88;6751338;21;19994;-82
2024/04/14 00:55:40;;;;;;;5.18;3.47;;;;;;;16.32;48.34;101399.00;6749800;21;19994;-81
2024/04/14 00:58:09;;;;;;;5.28;3.70;;;;;;;16.26;47.76;101398.78;6757338;21;20006;-83
2024/04/14 01:00:35;;;;;;;4.90;3.20;;;;;;;16.16;46.33;101414.84;6759717;21;19998;-84
2024/04/14 01:03:04;;;;;;;6.25;3.10;;;;;;;16.05;46.09;101404.41;6758969;21;20130;-84
2024/04/14 01:05:30;;;;;;;3.65;3.00;;;;;;;16.01;45.77;101405.69;6751943;21;19991;-82
2024/04/14 01:08:02;;;;;;;4.28;3.17;;;;;;;15.86;46.28;101408.88;6748464;21;20087;-81
2024/04/14 01:10:32;;;;;;;3.50;2.85;;;;;;;15.78;46.64;101416.78;6752992;21;20009;-82
2024/04/14 01:13:00;;;;;;;7.25;2.92;;;;;;;15.69;47.15;101420.34;6751100;21;20009;-83
2024/04/14 01:15:26;;;;;;;4.10;2.45;;;;;;;15.57;47.38;101424.16;6750756;21;20013;-82
2024/04/14 01:17:55;;;;;;;5.38;3.22;;;;;;;15.46;47.90;101422.53;6749424;21;20018;-83
2024/04/14 01:20:20;;;;;;;3.55;2.70;;;;;;;15.39;49.28;101429.41;6751242;21;19991;-81
2024/04/14 01:22:49;;;;;;;4.25;2.83;;;;;;;15.31;49.35;101432.84;6753260;21;20023;-83
2024/04/14 01:25:17;;;;;;;4.03;3.17;;;;;;;15.17;49.92;101433.28;6751123;21;19994;-79
2024/04/14 01:27:45;;;;;;;4.07;2.80;;;;;;;15.17;49.77;101436.78;6752911;21;19998;-82
2024/04/14 01:30:11;;;;;;;7.10;3.03;;;;;;;15.10;49.31;101438.34;6751413;21;20004;-82
2024/04/14 01:32:41;;;;;;;4.55;2.60;;;;;;;15.09;48.74;101439.34;6752451;21;19994;-82
2024/04/14 01:35:07;;;;;;;4.72;3.03;;;;;;;15.00;49.32;101448.22;6749730;21;19994;-82
2024/04/14 01:37:35;;;;;;;3.63;2.63;;;;;;;14.93;49.42;101447.09;6749053;21;20026;-81
2024/04/14 01:40:01;;;;;;;7.05;2.92;;;;;;;14.83;49.54;101451.59;6748376;21;20070;-81
2024/04/14 01:42:32;;;;;;;7.75;3.15;;;;;;;14.76;49.56;101455.78;6749533;21;20010;-80
2024/04/14 01:44:58;;;;;;;5.75;2.70;;;;;;;14.74;49.62;101453.28;6750703;21;20006;-79
2024/04/14 01:47:26;;;;;;;3.97;2.90;;;;;;;14.76;49.86;101455.78;6751447;21;19994;-80
2024/04/14 01:49:52;;;;;;;4.35;2.90;;;;;;;14.59;50.52;101452.00;6753472;21;20092;-83
2024/04/14 01:52:20;;;;;;;4.82;3.03;;;;;;;14.50;51.60;101453.69;6751624;21;20030;-81
2024/04/14 01:54:45;;;;;;;5.90;2.90;;;;;;;14.33;52.72;101457.00;6752839;21;20009;-82
2024/04/14 01:57:14;;;;;;;5.38;3.15;;;;;;;14.30;53.39;101466.13;6752982;21;19998;-81
2024/04/14 01:59:42;;;;;;;7.65;3.20;;;;;;;14.13;54.81;101464.94;6753198;21;19998;-82
2024/04/14 02:02:11;;;;;;;5.53;3.40;;;;;;;14.10;55.18;101469.69;6752832;21;19995;-80
2024/04/14 02:04:40;;;;;;;5.88;3.22;;;;;;;14.02;55.61;101465.09;6751017;21;20108;-81
2024/04/14 02:07:08;;;;;;;4.55;3.00;;;;;;;13.91;56.69;101467.84;6750497;21;19998;-82
2024/04/14 02:09:34;;;;;;;5.55;3.05;;;;;;;13.97;56.86;101472.59;6748895;21;19990;-80
2024/04/14 02:12:02;;;;;;;5.40;3.53;;;;;;;13.93;56.52;101467.69;6752292;21;20351;-82
2024/04/14 02:14:28;;;;;;;5.05;3.08;;;;;;;13.85;56.68;101466.56;6753750;21;20444;-81
2024/04/14 02:16:59;;;;;;;5.82;3.42;;;;;;;13.76;56.78;101471.84;6751074;21;20013;-81
2024/04/14 02:19:25;;;;;;;4.55;3.22;;;;;;;13.75;56.55;101478.13;6750508;21;20009;-81
2024/04/14 02:21:54;;;;;;;4.93;3.30;;;;;;;13.78;56.32;101472.53;6751502;21;20018;-81
2024/04/14 02:24:19;;;;;;;4.13;3.10;;;;;;;13.69;56.36;101476.00;6750547;21;20052;-78
2024/04/14 02:26:47;;;;;;;4.90;3.20;;;;;;;13.66;56.18;101490.41;6751561;21;20379;-81
2024/04/14 02:29:13;;;;;;;5.57;3.00;;;;;;;13.63;56.33;101494.19;6747925;21;19994;-79
2024/04/14 02:31:41;;;;;;;5.25;2.90;;;;;;;13.64;55.53;101489.72;6745858;21;19994;-80
2024/04/14 02:34:10;;;;;;;6.57;3.38;;;;;;;13.63;55.50;101488.03;6746421;21;20014;-80
2024/04/14 02:36:38;;;;;;;5.15;3.08;;;;;;;13.68;55.19;101493.78;6746642;21;20005;-81
2024/04/14 02:39:04;;;;;;;8.25;4.13;;;;;;;13.60;56.26;101488.28;6747291;21;19995;-82
2024/04/14 02:41:33;;;;;;;6.13;3.25;;;;;;;13.47;55.83;101493.81;6751004;21;19994;-82
2024/04/14 02:43:58;;;;;;;7.78;3.25;;;;;;;13.50;55.63;101488.25;6753304;21;20076;-81
2024/04/14 02:46:27;;;;;;;5.18;3.22;;;;;;;13.44;56.04;101494.09;6754330;21;20019;-82
2024/04/14 02:48:52;;;;;;;5.15;3.55;;;;;;;13.37;56.19;101493.78;6751408;21;20009;-82
2024/04/14 02:51:23;;;;;;;9.75;3.92;;;;;;;13.33;56.22;101489.69;6751592;21;19995;-81
2024/04/14 02:53:49;;;;;;;5.65;3.20;;;;;;;13.34;55.93;101499.34;6754671;21;19998;-81
2024/04/14 02:56:17;;;;;;;7.13;3.78;;;;;;;13.25;56.62;101493.97;6755313;21;19994;-81
2024/04/14 02:58:43;;;;;;;5.47;3.70;;;;;;;13.21;57.41;101498.66;6754452;21;20006;-81
2024/04/14 03:01:14;;;;;;;8.43;3.92;;;;;;;13.12;57.38;101505.59;6760792;21;20044;-81
2024/04/14 03:03:40;;;;;;;7.20;3.88;;;;;;;13.10;57.55;101506.72;6761092;21;20048;-81
2024/04/14 03:06:09;;;;;;;6.80;3.47;;;;;;;13.01;58.28;101500.34;6760217;21;20006;-79
2024/04/14 03:08:37;;;;;;;5.28;3.35;;;;;;;13.00;58.39;101498.69;6750167;21;20002;-83
2024/04/14 03:11:06;;;;;;;6.53;3.65;;;;;;;12.99;58.43;101509.41;6750127;21;20286;-81
2024/04/14 03:13:32;;;;;;;5.03;3.90;;;;;;;12.95;58.61;101500.88;6749992;21;19998;-80
2024/04/14 03:16:04;;;;;;;6.10;3.42;;;;;;;13.02;58.32;101501.19;6750412;21;20046;-80
2024/04/14 03:18:29;;;;;;;4.45;3.30;;;;;;;12.94;58.45;101506.31;6748784;21;20009;-80
2024/04/14 03:20:58;;;;;;;6.20;3.63;;;;;;;12.89;58.72;101499.56;6746806;21;20341;-80
2024/04/14 03:23:25;;;;;;;5.82;3.60;;;;;;;12.75;59.62;101501.69;6747717;21;20296;-80
2024/04/14 03:25:57;;;;;;;7.47;3.83;;;;;;;12.81;59.19;101496.72;6748447;21;20002;-79
2024/04/14 03:28:24;;;;;;;5.60;3.60;;;;;;;12.84;59.21;101503.56;6747851;21;20003;-80
2024/04/14 03:30:52;;;;;;;6.68;3.83;;;;;;;12.83;59.28;101499.25;6748138;21;20018;-80
2024/04/14 03:33:18;;;;;;;10.75;4.70;;;;;;;12.85;59.28;101503.44;6750157;21;19994;-80
2024/04/14 03:35:47;;;;;;;5.40;3.30;;;;;;;12.74;59.47;101500.84;6752533;21;20013;-81
2024/04/14 03:38:15;;;;;;;7.50;3.70;;;;;;;12.71;59.76;101510.88;6751658;21;20013;-82
2024/04/14 03:40:43;;;;;;;6.00;3.70;;;;;;;12.60;60.35;101501.97;6752909;21;20009;-82
2024/04/14 03:43:14;;;;;;;5.05;3.60;;;;;;;12.48;61.05;101497.66;6696207;21;19991;-78
2024/04/14 03:45:44;;;;;;;8.05;3.60;;;;;;;12.39;61.20;101482.50;6687989;21;20002;-77
2024/04/14 03:48:12;;;;;;;9.55;3.60;;;;;;;12.60;60.91;101507.28;6688086;21;20006;-80
2024/04/14 03:50:38;;;;;;;8.65;3.90;;;;;;;12.49;61.72;101507.31;6688476;21;20452;-80
2024/04/14 03:53:07;;;;;;;5.70;3.83;;;;;;;12.49;61.49;101512.63;6687011;21;19995;-78
2024/04/14 03:55:35;;;;;;;5.78;3.95;;;;;;;12.43;62.09;101518.44;6688936;21;19991;-80
2024/04/14 03:58:01;;;;;;;8.32;4.65;;;;;;;12.39;62.06;101519.66;6685633;21;20035;-79
2024/04/14 04:00:31;;;;;;;6.85;4.25;;;;;;;12.39;62.08;101522.31;6688546;21;20073;-79
2024/04/14 04:02:57;;;;;;;7.93;4.57;;;;;;;12.35;62.77;101531.47;6691843;21;19995;-80
2024/04/14 04:05:25;;;;;;;7.45;3.83;;;;;;;12.39;62.49;101525.81;6691505;21;20039;-81
2024/04/14 04:07:51;;;;;;;7.65;4.25;;;;;;;12.41;62.67;101525.66;6689585;21;19999;-79
2024/04/14 04:10:19;;;;;;;7.82;4.30;;;;;;;12.40;63.15;101526.63;6688788;21;20436;-79
2024/04/14 04:12:46;;;;;;;7.32;4.10;;;;;;;12.35;63.36;101523.53;6687938;21;19995;-79
2024/04/14 04:15:14;;;;;;;8.00;4.65;;;;;;;12.37;63.82;101529.56;6688925;21;19995;-78
2024/04/14 04:17:42;;;;;;;8.63;4.13;;;;;;;12.39;63.42;101527.63;6688617;21;19991;-79
2024/04/14 04:20:11;;;;;;;9.00;4.75;;;;;;;12.39;63.60;101523.16;6684940;21;19994;-78
2024/04/14 04:22:37;;;;;;;6.22;4.20;;;;;;;12.48;63.43;101528.69;6688285;21;20014;-80
2024/04/14 04:25:06;;;;;;;10.52;4.88;;;;;;;12.46;64.25;101535.94;6688118;21;19995;-79
2024/04/14 04:27:31;;;;;;;8.75;4.25;;;;;;;12.52;63.87;101528.31;6687043;21;20525;-78
2024/04/14 04:29:59;;;;;;;9.25;4.55;;;;;;;12.59;63.88;101526.84;6685464;21;20009;-79
2024/04/14 04:32:25;;;;;;;9.88;4.65;;;;;;;12.57;63.94;101536.75;6687351;21;19995;-80
2024/04/14 04:34:56;;;;;;;10.82;4.00;;;;;;;12.69;63.11;101539.38;6687090;21;20410;-80
2024/04/14 04:37:22;;;;;;;6.53;4.25;;;;;;;12.63;63.76;101533.59;6685889;21;20452;-79
2024/04/14 04:39:50;;;;;;;8.57;4.18;;;;;;;12.61;63.70;101542.66;6687150;21;20082;-80
2024/04/14 04:42:16;;;;;;;7.55;4.43;;;;;;;12.60;64.09;101543.63;6710838;21;19994;-80
2024/04/14 04:44:45;;;;;;;9.45;4.55;;;;;;;12.59;64.21;101540.13;6741650;21;19994;-80
2024/04/14 04:47:11;;;;;;;9.32;4.65;;;;;;;12.48;64.84;101537.50;6741832;21;20007;-81
2024/04/14 04:49:39;;;;;;;10.13;5.78;;;;;;;12.48;65.11;101542.81;6743488;21;20048;-78
2024/04/14 04:52:08;;;;;;;9.85;4.85;;;;;;;12.46;65.49;101547.41;6743149;21;20009;-81
2024/04/14 04:54:36;;;;;;;10.07;4.72;;;;;;;12.42;65.81;101550.44;6742114;21;20019;-79
2024/04/14 04:57:02;;;;;;;10.35;4.68;;;;;;;12.46;65.31;101550.06;6743379;21;20313;-80
2024/04/14 04:59:30;;;;;;;9.68;5.20;;;;;;;12.46;65.61;101555.38;6741404;21;20022;-77
2024/04/14 05:01:55;;;;;;;10.15;4.53;;;;;;;12.41;65.81;101546.91;6741131;21;20006;-78
2024/04/14 05:04:24;;;;;;;11.38;4.60;;;;;;;12.46;65.74;101555.38;6740893;21;20320;-79
2024/04/14 05:06:49;;;;;;;10.02;5.07;;;;;;;12.47;66.37;101556.22;6741688;21;20290;-79
2024/04/14 05:09:20;;;;;;;11.70;4.80;;;;;;;12.47;66.53;101558.88;6743989;21;20037;-79
2024/04/14 05:11:46;;;;;;;12.32;5.32;;;;;;;12.47;66.53;101557.03;6744424;21;20440;-79
2024/04/14 05:14:14;;;;;;;9.55;4.65;;;;;;;12.32;67.08;101568.88;6745438;21;19998;-79
2024/04/14 05:16:43;;;;;;;9.48;4.90;;;;;;;12.27;68.20;101566.59;6744743;21;20010;-79
2024/04/14 05:19:11;;;;;;;10.18;4.68;;;;;;;12.36;68.15;101572.97;6743725;21;20004;-81
2024/04/14 05:21:36;;;;;;;13.13;5.40;;;;;;;12.39;68.28;101570.09;6743798;21;19999;-78
2024/04/14 05:24:07;;;;;;;8.90;5.20;;;;;;;12.45;68.28;101574.91;6744774;21;19994;-78
2024/04/14 05:26:35;;;;;;;9.15;5.22;;;;;;;12.48;68.14;101572.00;6742661;21;20005;-76
2024/04/14 05:29:03;;;;;;;9.18;5.65;;;;;;;12.49;68.17;101581.66;6743214;21;20101;-78
2024/04/14 05:31:29;;;;;;;12.05;5.55;;;;;;;12.51;68.33;101577.06;6742368;21;19990;-77
2024/04/14 05:33:57;;;;;;;9.40;4.95;;;;;;;12.51;68.30;101578.91;6743894;21;20012;-80
2024/04/14 05:36:23;;;;;;;10.95;6.03;;;;;;;12.50;69.14;101588.69;6746787;21;20387;-78
2024/04/14 05:38:51;;;;;;;8.05;5.22;;;;;;;12.54;69.10;101586.59;6747063;21;20002;-79
2024/04/14 05:41:17;;;;;;;13.30;5.75;;;;;;;12.58;69.02;101580.06;6743862;21;19994;-79
2024/04/14 05:43:48;;;;;;;10.20;5.82;;;;;;;12.60;69.61;101579.00;6747717;21;20014;-79
2024/04/14 05:46:14;;;;;;;14.57;5.65;;;;;;;12.71;69.21;101574.63;6744969;21;20308;-80
2024/04/14 05:48:42;;;;;;;12.10;5.53;;;;;;;12.86;69.26;101576.03;6743376;21;19994;-78
2024/04/14 05:51:08;;;;;;;13.85;5.75;;;;;;;12.97;68.38;101573.31;6744229;21;20309;-79
2024/04/14 05:53:36;;;;;;;12.93;5.63;;;;;;;12.96;68.84;101579.63;6746430;21;19998;-79
2024/04/14 05:56:02;;;;;;;14.95;6.88;;;;;;;12.97;69.47;101578.63;6746670;21;19998;-80
2024/04/14 05:58:30;;;;;;;12.43;7.05;;;;;;;13.04;69.44;101584.31;6746364;21;20017;-79
2024/04/14 06:01:03;;;;;;;15.48;6.68;;;;;;;12.98;69.11;101587.44;6754259;21;19995;-81
2024/04/14 06:03:31;;;;;;;10.10;5.65;;;;;;;13.20;68.11;101582.03;6752092;21;20002;-79
2024/04/14 06:05:57;;;;;;;13.05;6.28;;;;;;;13.21;68.23;101577.56;6747561;21;20009;-81
2024/04/14 06:08:25;;;;;;;17.90;6.30;;;;;;;13.23;68.42;101581.81;6747395;21;19994;-79
2024/04/14 06:10:51;;;;;;;13.15;6.55;;;;;;;13.30;68.60;101587.47;6745935;21;19990;-80
2024/04/14 06:13:19;;;;;;;19.25;6.45;;;;;;;13.32;68.50;101593.50;6756662;21;20011;-80
2024/04/14 06:15:45;;;;;;;14.05;6.50;;;;;;;13.36;68.12;101592.28;6757895;21;19994;-79
2024/04/14 06:18:16;;;;;;;14.52;6.07;;;;;;;13.24;68.85;101598.63;6757108;21;20067;-79
2024/04/14 06:20:45;;;;;;;14.82;7.10;;;;;;;13.42;69.06;101607.72;6758816;21;19990;-81
2024/04/14 06:23:13;;;;;;;11.38;6.35;;;;;;;13.52;68.16;101597.13;6759982;21;19998;-79
2024/04/14 06:25:39;;;;;;;13.95;6.90;;;;;;;13.74;67.32;101588.19;6760316;21;20040;-80
2024/04/14 06:28:07;;;;;;;13.50;6.57;;;;;;;13.93;66.99;101593.63;6760516;21;19994;-81
2024/04/14 06:30:33;;;;;;;11.60;6.60;;;;;;;14.05;66.43;101597.88;6761688;21;19990;-80
2024/04/14 06:33:02;;;;;;;12.77;6.75;;;;;;;13.96;67.08;101601.34;6758168;21;20403;-81
2024/04/14 06:35:30;;;;;;;13.27;6.63;;;;;;;14.10;67.04;101587.66;6748329;21;19994;-78
2024/04/14 06:37:59;;;;;;;16.38;7.35;;;;;;;14.34;66.04;101590.03;6752581;21;20059;-78
2024/04/14 06:40:25;;;;;;;11.93;6.90;;;;;;;14.28;65.90;101600.34;6751716;21;19995;-80
2024/04/14 06:42:53;;;;;;;14.98;7.57;;;;;;;14.46;66.07;101604.06;6750492;21;20016;-79
2024/04/14 06:45:19;;;;;;;14.40;7.90;;;;;;;14.24;66.38;101601.59;6747123;21;20002;-80
2024/04/14 06:47:48;;;;;;;13.75;8.00;;;;;;;14.60;65.02;101600.22;6747624;21;19998;-79
2024/04/14 06:50:14;;;;;;;16.20;7.30;;;;;;;14.66;64.97;101600.50;6750428;21;19994;-80
2024/04/14 06:52:44;;;;;;;20.05;8.30;;;;;;;14.80;65.23;101604.59;6751793;21;19990;-80
2024/04/14 06:55:12;;;;;;;12.85;7.53;;;;;;;14.98;64.19;101596.78;6748327;21;19990;-79
2024/04/14 06:57:40;;;;;;;15.23;7.50;;;;;;;15.20;62.94;101600.16;6744751;21;20392;-80
2024/04/14 07:00:07;;;;;;;17.52;7.20;;;;;;;15.59;62.21;101604.47;6743254;21;19994;-79
2024/04/14 07:02:36;;;;;;;14.48;7.72;;;;;;;15.52;61.32;101602.50;6742696;21;19991;-78
2024/04/14 07:05:02;;;;;;;14.77;7.47;;;;;;;15.30;62.95;101600.97;6744784;21;20069;-79
2024/04/14 07:07:30;;;;;;;17.80;6.88;;;;;;;15.67;61.55;101606.47;6745924;21;20050;-79
2024/04/14 07:09:59;;;;;;;17.63;7.78;;;;;;;15.34;62.09;101605.06;6744559;21;20452;-79
2024/04/14 07:12:27;;;;;;;15.48;7.10;;;;;;;15.57;61.06;101606.44;6744943;21;20393;-79
2024/04/14 07:14:53;;;;;;;19.33;7.40;;;;;;;15.69;60.68;101599.16;6745375;21;20009;-79
2024/04/14 07:17:21;;;;;;;16.42;7.60;;;;;;;15.81;59.54;101605.19;6744696;21;20033;-78
2024/04/14 07:19:47;;;;;;;15.85;6.93;;;;;;;16.14;58.94;101607.31;6745825;21;19990;-79
2024/04/14 07:22:15;;;;;;;14.68;6.90;;;;;;;16.25;58.15;101616.97;6742726;21;20002;-80
2024/04/14 07:24:41;;;;;;;16.92;7.55;;;;;;;16.24;58.56;101617.94;6744364;21;19991;-79
2024/04/14 07:27:12;;;;;;;14.60;7.00;;;;;;;16.66;57.36;101612.97;6742221;21;20405;-78
2024/04/14 07:29:38;;;;;;;13.98;7.88;;;;;;;15.92;58.87;101611.16;6742550;21;20450;-79
2024/04/14 07:32:08;;;;;;;15.68;7.32;;;;;;;16.12;59.30;101613.78;6741687;21;20466;-80
2024/04/14 07:34:33;;;;;;;13.77;6.90;;;;;;;16.00;58.27;101617.63;6743216;21;20332;-79
2024/04/14 07:37:02;;;;;;;13.32;6.55;;;;;;;16.17;57.99;101617.69;6743224;21;20120;-79
2024/04/14 07:39:28;;;;;;;18.55;7.72;;;;;;;16.04;58.79;101614.50;6740779;21;19990;-79
2024/04/14 07:41:57;;;;;;;15.95;6.40;;;;;;;16.37;56.91;101617.59;6741491;21;20009;-78
2024/04/14 07:44:26;;;;;;;16.10;6.57;;;;;;;16.06;58.59;101617.03;6743997;21;20002;-79
2024/04/14 07:46:54;;;;;;;17.45;6.88;;;;;;;16.57;57.79;101621.88;6742789;21;20433;-79
2024/04/14 07:49:20;;;;;;;15.35;7.30;;;;;;;16.75;56.65;101621.13;6741207;21;20022;-79
2024/04/14 07:51:49;;;;;;;13.70;6.53;;;;;;;16.74;56.49;101614.06;6740847;21;20071;-78
2024/04/14 07:54:15;;;;;;;14.38;7.22;;;;;;;17.02;56.33;101630.94;6741852;21;19994;-79
2024/04/14 07:56:44;;;;;;;13.40;6.68;;;;;;;16.74;55.14;101619.41;6742238;21;20006;-79
2024/04/14 07:59:10;;;;;;;14.82;6.88;;;;;;;16.44;56.77;101616.03;6742626;21;19990;-79
2024/04/14 08:01:41;;;;;;;15.13;6.90;;;;;;;16.41;56.77;101619.84;6744050;21;20043;-79
2024/04/14 08:04:06;;;;;;;15.05;7.07;;;;;;;16.67;56.06;101622.66;6741841;21;20005;-80
2024/04/14 08:06:35;;;;;;;14.05;6.63;;;;;;;16.83;55.85;101634.53;6743436;21;20027;-79
2024/04/14 08:09:01;;;;;;;14.32;6.85;;;;;;;16.67;55.97;101644.03;6743608;21;20005;-79
2024/04/14 08:11:29;;;;;;;10.00;6.40;;;;;;;16.00;58.59;101642.50;6743555;21;19995;-79
2024/04/14 08:13:55;;;;;;;15.00;7.30;;;;;;;15.56;60.24;101646.59;6735714;21;20097;-79
2024/04/14 08:16:24;;;;;;;14.63;6.70;;;;;;;15.57;60.09;101651.78;6739144;21;19998;-79
2024/04/14 08:18:52;;;;;;;16.42;6.78;;;;;;;15.51;59.61;101646.19;6739702;21;19994;-79
2024/04/14 08:21:30;;;;;;;16.33;6.70;;;;;;;15.69;59.21;101646.34;6741963;21;19998;-79
2024/04/14 08:23:55;;;;;;;12.90;6.47;;;;;;;15.78;58.27;101650.81;6742993;21;19998;-79
2024/04/14 08:26:23;;;;;;;13.73;6.97;;;;;;;15.79;59.62;101647.16;6742603;21;20005;-79
2024/04/14 08:28:49;;;;;;;12.23;6.22;;;;;;;16.01;59.08;101640.66;6739779;21;20017;-79
2024/04/14 08:31:17;;;;;;;13.68;6.78;;;;;;;15.78;57.91;101643.66;6742899;21;20013;-79
2024/04/14 08:33:44;;;;;;;16.05;6.97;;;;;;;15.50;59.57;101641.84;6744657;21;20018;-79
2024/04/14 08:36:15;;;;;;;15.60;6.05;;;;;;;15.85;58.08;101647.44;6740659;21;19994;-78
2024/04/14 08:38:41;;;;;;;14.27;6.20;;;;;;;16.03;56.90;101647.56;6741091;21;19994;-79
2024/04/14 08:41:09;;;;;;;14.65;5.88;;;;;;;16.71;54.73;101643.75;6738561;21;20009;-78
2024/04/14 08:43:35;;;;;;;12.98;5.85;;;;;;;16.63;55.08;101647.16;6742315;21;20002;-78
2024/04/14 08:46:05;;;;;;;15.70;5.82;;;;;;;16.34;54.85;101632.13;6742304;21;20013;-78
2024/04/14 08:48:31;;;;;;;11.88;5.43;;;;;;;16.37;55.36;101644.31;6740515;21;19998;-79
2024/04/14 08:51:01;;;;;;;11.65;5.72;;;;;;;16.01;55.96;101646.84;6740284;21;20017;-77
2024/04/14 08:53:33;;;;;;;11.45;6.10;;;;;;;16.05;57.00;101650.06;6740497;21;20005;-79
2024/04/14 08:56:03;;;;;;;;;;;;;;;16.23;56.48;101658.16;6744424;21;20519;-79
2024/04/14 08:58:31;;;;;;;12.30;6.15;;;;;;;17.05;55.27;101652.84;6743401;21;20242;-80
2024/04/14 09:01:04;;;;;;;11.98;5.32;;;;;;;16.99;50.56;101649.94;6744139;21;20008;-80
2024/04/14 09:03:31;;;;;;;12.60;4.75;;;;;;;17.64;50.91;101654.06;6743987;21;20022;-79
2024/04/14 09:06:07;;;;;;;13.80;5.78;;;;;;;18.35;49.26;101647.69;6744308;21;20030;-79
2024/04/14 09:08:35;;;;;;;12.27;5.20;;;;;;;18.58;47.05;101642.59;6744961;21;20425;-79
2024/04/14 09:11:07;;;;;;;10.45;5.35;;;;;;;18.49;48.37;101648.94;6743762;21;20009;-79
2024/04/14 09:13:33;;;;;;;13.70;5.50;;;;;;;18.38;47.47;101643.84;6744989;21;20052;-82
2024/04/14 09:16:02;;;;;;;11.07;5.93;;;;;;;18.28;47.65;101652.00;6744623;21;19998;-78
2024/04/14 09:18:29;;;;;;;10.30;4.75;;;;;;;18.91;47.01;101648.94;6743870;21;19991;-80
2024/04/14 09:20:57;;;;;;;10.48;4.18;;;;;;;18.38;44.78;101638.47;6742798;21;19994;-78
2024/04/14 09:23:23;;;;;;;8.98;4.80;;;;;;;18.08;47.49;101635.34;6743237;21;19990;-78
2024/04/14 09:25:54;;;;;;;10.60;5.50;;;;;;;18.41;45.48;101627.44;6747295;21;20435;-79
2024/04/14 09:28:20;;;;;;;13.67;4.73;;;;;;;18.62;45.02;101643.97;6749570;21;20005;-80
2024/04/14 09:30:48;;;;;;;10.43;3.97;;;;;;;18.91;43.76;101640.03;6748256;21;19994;-78
2024/04/14 09:33:14;;;;;;;8.20;3.78;;;;;;;19.03;43.15;101644.09;6744522;21;19991;-79
2024/04/14 09:35:45;;;;;;;7.30;3.70;;;;;;;18.99;41.86;101649.97;6745073;21;19999;-79
2024/04/14 09:38:14;;;;;;;9.98;3.40;;;;;;;18.79;42.56;101649.41;6744748;21;19999;-79
2024/04/14 09:40:44;;;;;;;8.18;4.20;;;;;;;18.64;42.54;101658.03;6746192;21;20002;-78
2024/04/14 09:45:57;;;;;;;10.13;3.70;;;;;;;18.77;42.35;101651.41;6693559;21;20005;-81
2024/04/14 09:48:28;;;;;;;6.28;3.50;;;;;;;18.53;42.03;101650.28;6692531;21;19995;-80
2024/04/14 09:50:57;;;;;;;12.02;4.70;;;;;;;18.24;45.23;101657.84;6694582;21;19995;-81
2024/04/14 09:53:31;;;;;;;11.40;4.78;;;;;;;18.91;44.77;101653.47;6696225;21;20002;-79
2024/04/14 09:55:57;;;;;;;8.75;3.42;;;;;;;18.54;43.25;101662.69;6695805;21;20386;-81
2024/04/14 09:58:26;;;;;;;10.23;3.90;;;;;;;18.41;42.99;101654.25;6694902;21;20003;-79
2024/04/14 10:00:57;;;;;;;10.85;3.88;;;;;;;18.47;43.35;101652.75;6687789;21;19995;-78
2024/04/14 10:03:29;;;;;;;9.88;3.92;;;;;;;18.96;41.96;101656.50;6688668;21;19995;-79
2024/04/14 10:05:57;;;;;;;7.30;3.50;;;;;;;18.84;42.80;101657.78;6689057;21;19998;-78
2024/04/14 10:08:25;;;;;;;5.55;3.75;;;;;;;18.77;43.33;101656.78;6686974;21;20007;-78
2024/04/14 10:10:52;;;;;;;8.85;4.60;;;;;;;19.21;41.61;101648.50;6687376;21;20424;-79
2024/04/14 10:13:20;;;;;;;8.38;3.67;;;;;;;19.33;42.53;101644.47;6686972;21;19991;-79
2024/04/14 10:15:58;;;;;;;11.05;3.90;;;;;;;19.43;41.51;101643.31;6691054;21;20112;-78
2024/04/14 10:18:27;;;;;;;7.15;3.60;;;;;;;19.27;42.31;101645.16;6690334;21;20106;-79
2024/04/14 10:20:55;;;;;;;8.18;3.67;;;;;;;19.81;41.38;101646.34;6694821;21;20010;-78
2024/04/14 10:23:24;;;;;;;8.02;4.20;;;;;;;19.11;42.63;101648.66;6694681;21;20294;-79
2024/04/14 10:25:52;;;;;;;6.57;3.72;;;;;;;19.26;43.10;101648.84;6693701;21;20006;-80
2024/04/14 10:28:20;;;;;;;9.60;4.47;;;;;;;19.48;42.14;101644.66;6694047;21;20007;-80
2024/04/14 10:30:48;;;;;;;9.70;4.30;;;;;;;18.57;43.57;101648.97;6694549;21;20013;-80
2024/04/14 10:33:26;;;;;;;8.65;4.53;;;;;;;18.33;44.14;101654.22;6693356;21;20252;-78
2024/04/14 10:36:02;;;;;;;10.38;4.28;;;;;;;18.38;44.26;101651.88;6693712;21;19995;-78
2024/04/14 10:38:32;;;;;;;9.60;4.28;;;;;;;18.55;44.72;101650.13;6693746;21;19995;-77
2024/04/14 10:40:58;;;;;;;8.38;4.10;;;;;;;18.51;44.55;101649.59;6694806;21;20453;-80
2024/04/14 10:43:27;;;;;;;8.25;4.68;;;;;;;18.85;44.32;101656.81;6694780;21;20007;-78
2024/04/14 10:45:52;;;;;;;8.75;4.20;;;;;;;18.86;43.42;101655.81;6747211;21;20013;-80
2024/04/14 10:48:21;;;;;;;9.23;4.80;;;;;;;18.83;43.32;101650.75;6748704;21;19994;-80
2024/04/14 10:50:49;;;;;;;9.80;4.60;;;;;;;19.16;42.79;101657.06;6749813;21;19998;-80
2024/04/14 10:53:18;;;;;;;9.32;4.57;;;;;;;19.35;41.41;101656.72;6751123;21;20001;-80
2024/04/14 10:55:44;;;;;;;7.38;3.97;;;;;;;19.26;41.59;101656.88;6748165;21;19991;-80
2024/04/14 10:58:13;;;;;;;7.03;4.05;;;;;;;18.73;42.11;101656.25;6744614;21;20030;-79
2024/04/14 11:00:40;;;;;;;9.77;4.57;;;;;;;18.64;42.43;101658.03;6744459;21;20005;-78
2024/04/14 11:03:08;;;;;;;12.07;4.57;;;;;;;18.09;44.06;101663.78;6744116;21;19994;-79
2024/04/14 11:05:34;;;;;;;8.10;3.90;;;;;;;18.67;43.60;101649.69;6744420;21;19994;-79
2024/04/14 11:08:11;;;;;;;7.70;4.18;;;;;;;19.14;42.34;101645.63;6743384;21;20002;-80
2024/04/14 11:10:37;;;;;;;8.50;4.45;;;;;;;19.62;42.60;101650.22;6742726;21;20005;-80
2024/04/14 11:13:06;;;;;;;6.40;4.25;;;;;;;19.50;41.19;101635.41;6744196;21;20068;-80
2024/04/14 11:15:32;;;;;;;7.57;4.30;;;;;;;19.04;41.78;101631.53;6749138;21;20435;-79
2024/04/14 11:18:02;;;;;;;10.20;4.65;;;;;;;18.92;42.34;101631.81;6747466;21;20332;-78
2024/04/14 11:20:28;;;;;;;8.57;4.90;;;;;;;19.43;42.83;101618.31;6747104;21;20563;-78
2024/04/14 11:22:56;;;;;;;7.05;4.30;;;;;;;20.01;40.46;101611.91;6746557;21;19998;-80
2024/04/14 11:25:27;;;;;;;8.70;4.30;;;;;;;20.24;40.27;101603.91;6746425;21;20305;-78
2024/04/14 11:27:53;;;;;;;6.65;4.05;;;;;;;20.19;40.55;101612.50;6748759;21;19990;-80